Portada
METAR-TAF:

METAR-TAF

Aeropuertos :

Oklahoma City, Oklahoma, Estados Unidos

latitud: 35-29-17N, longitud: 097-49-25W, altitud: 413 m

Observación

El informe se hizo hace 27 minutos, a las 08:35 UTC
Viento 9 kt del este
Temperatura 18°C
Humedad 88%
Presión 1008 hPa
Visibilidad: 16.1 km

METAR: KRCE 250835Z AUTO 09009KT 10SM 18/16 A2977 RMK AO2

Hora: 04:02 (09:02 UTC)


TAF: falta

Observaciones y pronósticos meteorológicos de más de 4000 aeropuertos (mensajes METAR y TAF).

Los puntos amarillos y rojos representan las estaciones disponibles.

Ponga el ratón en el punto deseado para ver el nombre de la estación.

Haga clic para ver las observaciones y los pronósticos meteorológicos.

Para cambiar el mapa : haga clic en los botones verdes con una cruz de color negro para hacer un zoom, en el botón verde con un guión para alejar o en las flechas verdes para mapas adyacentes.


METAR-TAF: